Terminal Aerodrome Forecast
Issued by NWS Northern Indiana

Home | Current Version | Previous Version | Text Only | Print | Product List | Glossary On
Versions: 1 2 3 4 5 6 7 8 9 10 11 12 13 14 15 16 17
000
FTUS43 KIWX 290538
TAFFWA
TAF
KFWA 290538Z 2906/3006 21005KT P6SM BKN100
     FM290700 17005KT P6SM -SHRA OVC050
     FM291100 14008KT P6SM -RA OVC035
     FM291500 13012KT 5SM -RA BR OVC015
      TEMPO 2916/2920 2SM RA BR OVC008=

USA.gov is the U.S. government's official web portal to all federal, state and local government web resources and services.